Time;durP1;ratioP1;P1;durP2;ratioP2;P2;SDS_P1;SDS_P2;PMS_P1;PMS_P2;Temp;Humidity;BMP_temperature;BMP_pressure;BME280_temperature;BME280_humidity;BME280_pressure;Samples;Min_cycle;Max_cycle;Signal;HPM_P1;HPM_P2
2023/07/07 00:01:44;;;;;;;0.00;0.00;;;14.90;74.20;;;;;;5011663;28;20130;-68
2023/07/07 00:04:10;;;;;;;0.00;0.00;;;14.90;74.50;;;;;;5014483;28;20048;-68
2023/07/07 00:06:35;;;;;;;0.00;0.00;;;14.90;74.70;;;;;;5028845;28;20449;-69
2023/07/07 00:09:03;;;;;;;0.00;0.00;;;14.80;74.40;;;;;;5030916;28;20049;-69
2023/07/07 00:11:28;;;;;;;0.00;0.00;;;14.80;74.80;;;;;;5031176;28;20068;-68
2023/07/07 00:13:54;;;;;;;0.00;0.00;;;14.80;74.80;;;;;;5010596;28;20056;-69
2023/07/07 00:16:22;;;;;;;0.00;0.00;;;14.70;74.80;;;;;;5030248;28;20049;-68
2023/07/07 00:18:48;;;;;;;0.00;0.00;;;14.80;75.10;;;;;;5030537;28;20500;-68
2023/07/07 00:21:14;;;;;;;0.00;0.00;;;14.80;74.90;;;;;;5031064;28;20096;-68
2023/07/07 00:23:40;;;;;;;0.00;0.00;;;14.80;75.50;;;;;;5012453;28;20041;-68
2023/07/07 00:26:08;;;;;;;0.00;0.00;;;14.80;75.50;;;;;;5011524;28;20049;-69
2023/07/07 00:28:34;;;;;;;0.00;0.00;;;14.70;75.10;;;;;;5030116;28;20053;-68
2023/07/07 00:31:00;;;;;;;0.00;0.00;;;14.70;75.40;;;;;;5013046;28;20041;-69
2023/07/07 00:33:27;;;;;;;0.00;0.00;;;14.70;75.50;;;;;;5013009;28;20054;-68
2023/07/07 00:35:53;;;;;;;0.10;0.10;;;14.60;75.50;;;;;;5029082;28;20033;-68
2023/07/07 00:38:19;;;;;;;0.10;0.10;;;14.70;75.30;;;;;;5030649;28;20045;-68
2023/07/07 00:40:45;;;;;;;0.00;0.00;;;14.70;75.20;;;;;;5029875;28;20512;-69
2023/07/07 00:43:17;;;;;;;0.00;0.00;;;14.80;74.90;;;;;;5029081;28;20054;-68
2023/07/07 00:45:43;;;;;;;;;;;14.80;75.10;;;;;;5030062;28;20414;-68
2023/07/07 00:48:16;;;;;;;0.00;0.00;;;14.90;75.00;;;;;;5030194;28;19921;-68
2023/07/07 00:50:48;;;;;;;0.00;0.00;;;14.90;74.80;;;;;;5029682;28;20052;-69
2023/07/07 00:53:13;;;;;;;0.00;0.00;;;15.00;74.70;;;;;;5030234;28;20108;-68
2023/07/07 00:55:48;;;;;;;0.00;0.00;;;14.90;74.60;;;;;;5027941;28;20128;-69
2023/07/07 00:58:17;;;;;;;0.00;0.00;;;14.90;74.40;;;;;;5029617;28;20505;-69
2023/07/07 01:00:47;;;;;;;0.00;0.00;;;14.90;74.40;;;;;;5011908;28;20053;-68
2023/07/07 01:03:24;;;;;;;0.00;0.00;;;14.90;74.40;;;;;;5011060;28;20053;-69
2023/07/07 01:05:53;;;;;;;0.00;0.00;;;14.90;74.40;;;;;;5028714;28;20037;-68
2023/07/07 01:08:19;;;;;;;0.00;0.00;;;14.90;74.70;;;;;;5030002;28;20171;-68
2023/07/07 01:10:45;;;;;;;0.00;0.00;;;14.80;74.50;;;;;;5028294;28;20053;-68
2023/07/07 01:13:11;;;;;;;0.00;0.00;;;14.90;74.60;;;;;;5029672;28;20134;-68
2023/07/07 01:15:52;;;;;;;0.00;0.00;;;14.80;74.60;;;;;;5011068;28;20085;-68
2023/07/07 01:18:33;;;;;;;0.00;0.00;;;14.80;74.60;;;;;;5027229;28;20054;-68
2023/07/07 01:21:09;;;;;;;0.00;0.00;;;14.80;74.50;;;;;;5010967;28;20045;-69
2023/07/07 01:23:59;;;;;;;0.00;0.00;;;14.70;74.20;;;;;;5029587;28;20486;-68
2023/07/07 01:26:37;;;;;;;0.00;0.00;;;14.60;74.20;;;;;;5028736;28;20049;-69
2023/07/07 01:29:14;;;;;;;0.00;0.00;;;14.50;74.60;;;;;;5011856;28;20045;-68
2023/07/07 01:31:48;;;;;;;0.00;0.00;;;14.40;75.20;;;;;;5028156;28;20050;-68
2023/07/07 01:34:16;;;;;;;0.00;0.00;;;14.40;75.20;;;;;;5011502;28;20041;-68
2023/07/07 01:36:41;;;;;;;0.00;0.00;;;14.40;74.90;;;;;;5027817;28;20052;-68
2023/07/07 01:39:10;;;;;;;0.00;0.00;;;14.30;75.00;;;;;;5029612;28;20045;-69
2023/07/07 01:41:57;;;;;;;0.00;0.00;;;14.30;75.10;;;;;;5010781;28;20064;-68
2023/07/07 01:44:37;;;;;;;0.00;0.00;;;14.30;75.20;;;;;;5027971;28;20057;-69
2023/07/07 01:47:13;;;;;;;0.00;0.00;;;14.30;75.20;;;;;;5009913;28;20081;-68
2023/07/07 01:49:55;;;;;;;0.00;0.00;;;14.20;75.20;;;;;;5009535;28;20517;-69
2023/07/07 01:52:38;;;;;;;0.00;0.00;;;14.20;75.10;;;;;;5028863;28;20417;-68
2023/07/07 01:55:17;;;;;;;0.00;0.00;;;14.10;75.20;;;;;;5025834;28;20095;-69
2023/07/07 01:57:47;;;;;;;0.00;0.00;;;14.10;75.50;;;;;;5028440;28;20046;-68
2023/07/07 02:00:15;;;;;;;0.00;0.00;;;14.10;75.80;;;;;;5029094;28;20052;-68
2023/07/07 02:02:40;;;;;;;0.00;0.00;;;14.10;75.80;;;;;;5010199;28;20041;-68
2023/07/07 02:05:07;;;;;;;0.00;0.00;;;14.10;75.70;;;;;;5028003;28;20472;-69
2023/07/07 02:07:33;;;;;;;0.00;0.00;;;14.10;75.90;;;;;;5011789;28;20049;-68
2023/07/07 02:09:59;;;;;;;0.00;0.00;;;14.10;76.20;;;;;;5010983;28;20049;-68
2023/07/07 02:12:24;;;;;;;0.00;0.00;;;14.10;76.00;;;;;;5011249;28;20046;-68
2023/07/07 02:14:50;;;;;;;0.00;0.00;;;14.10;76.20;;;;;;5026669;28;20057;-68
2023/07/07 02:17:16;;;;;;;0.00;0.00;;;14.00;76.20;;;;;;5011548;28;20137;-68
2023/07/07 02:19:42;;;;;;;0.00;0.00;;;14.00;76.10;;;;;;5027555;28;20422;-69
2023/07/07 02:22:08;;;;;;;0.00;0.00;;;14.00;76.10;;;;;;5009447;28;20084;-68
2023/07/07 02:24:34;;;;;;;0.00;0.00;;;14.00;76.10;;;;;;5011578;28;20394;-68
2023/07/07 02:26:59;;;;;;;0.00;0.00;;;13.90;76.20;;;;;;5028777;28;20046;-68
2023/07/07 02:29:25;;;;;;;0.00;0.00;;;13.90;76.10;;;;;;5026775;28;20103;-68
2023/07/07 02:31:50;;;;;;;0.00;0.00;;;13.80;76.40;;;;;;5028431;28;20045;-68
2023/07/07 02:34:16;;;;;;;0.00;0.00;;;13.80;76.50;;;;;;5000166;28;20054;-68
2023/07/07 02:36:41;;;;;;;0.00;0.00;;;13.80;76.50;;;;;;5027981;28;20577;-69
2023/07/07 02:39:07;;;;;;;0.00;0.00;;;13.80;76.50;;;;;;5010984;28;20053;-68
2023/07/07 02:41:32;;;;;;;0.00;0.00;;;13.80;76.60;;;;;;5027322;28;20077;-68
2023/07/07 02:43:59;;;;;;;0.00;0.00;;;13.80;76.90;;;;;;5028317;28;20049;-68
2023/07/07 02:46:24;;;;;;;0.00;0.00;;;13.80;76.80;;;;;;5028316;28;20505;-68
2023/07/07 02:48:50;;;;;;;0.00;0.00;;;13.70;77.10;;;;;;5028637;28;20049;-69
2023/07/07 02:51:16;;;;;;;0.00;0.00;;;13.70;77.10;;;;;;5028760;28;20068;-68
2023/07/07 02:53:41;;;;;;;0.00;0.00;;;13.80;77.20;;;;;;5025753;28;20103;-69
2023/07/07 02:56:07;;;;;;;0.00;0.00;;;13.80;77.30;;;;;;5028475;28;20041;-68
2023/07/07 02:58:33;;;;;;;0.00;0.00;;;13.80;77.40;;;;;;5010633;28;20531;-68
2023/07/07 03:01:17;;;;;;;0.00;0.00;;;13.80;77.80;;;;;;5027630;28;20048;-68
2023/07/07 03:03:47;;;;;;;0.00;0.00;;;13.90;77.90;;;;;;5027460;28;20049;-69
2023/07/07 03:06:21;;;;;;;0.03;0.03;;;13.90;77.90;;;;;;5028019;28;20398;-69
2023/07/07 03:08:47;;;;;;;0.00;0.00;;;14.00;77.80;;;;;;5028438;28;20125;-69
2023/07/07 03:11:15;;;;;;;0.00;0.00;;;13.90;77.70;;;;;;5027304;28;20124;-69
2023/07/07 03:13:41;;;;;;;0.00;0.00;;;13.90;77.90;;;;;;5027126;28;20077;-69
2023/07/07 03:16:13;;;;;;;0.00;0.00;;;14.00;77.90;;;;;;5013329;28;20061;-68
2023/07/07 03:18:40;;;;;;;;;;;14.00;78.10;;;;;;5030946;28;20095;-68
2023/07/07 03:21:06;;;;;;;0.00;0.00;;;14.10;78.40;;;;;;5032115;28;19932;-68
2023/07/07 03:23:31;;;;;;;0.00;0.00;;;14.00;78.30;;;;;;5013377;28;20418;-68
2023/07/07 03:26:09;;;;;;;0.00;0.00;;;14.00;78.20;;;;;;5013326;28;20046;-68
2023/07/07 03:28:35;;;;;;;0.00;0.00;;;14.10;78.60;;;;;;5013270;28;20420;-68
2023/07/07 03:31:16;;;;;;;0.00;0.00;;;14.10;78.80;;;;;;5031409;28;20052;-68
2023/07/07 03:33:44;;;;;;;0.00;0.00;;;14.10;78.90;;;;;;5030115;28;20573;-69
2023/07/07 03:36:12;;;;;;;0.00;0.00;;;14.10;79.00;;;;;;5031078;28;20045;-68
2023/07/07 03:38:39;;;;;;;0.00;0.00;;;14.10;78.80;;;;;;5013689;28;20045;-68
2023/07/07 03:41:15;;;;;;;0.00;0.00;;;14.10;79.00;;;;;;5030814;28;20045;-68
2023/07/07 03:43:45;;;;;;;0.10;0.10;;;14.10;79.00;;;;;;5012413;28;20053;-68
2023/07/07 03:46:18;;;;;;;0.00;0.00;;;14.10;78.90;;;;;;5013186;28;20061;-68
2023/07/07 03:48:45;;;;;;;0.00;0.00;;;14.10;78.90;;;;;;5030919;28;20053;-68
2023/07/07 03:51:12;;;;;;;0.00;0.00;;;14.10;79.00;;;;;;5031260;28;20383;-68
2023/07/07 03:53:38;;;;;;;0.00;0.00;;;14.10;79.10;;;;;;5011100;28;20520;-68
2023/07/07 03:56:05;;;;;;;0.00;0.00;;;14.10;79.00;;;;;;5013461;28;20037;-68
2023/07/07 03:58:31;;;;;;;0.00;0.00;;;14.10;79.10;;;;;;5006742;28;20574;-68
2023/07/07 04:01:09;;;;;;;0.00;0.00;;;14.10;79.10;;;;;;5026047;28;20049;-68
2023/07/07 04:03:35;;;;;;;0.00;0.00;;;14.10;78.90;;;;;;5030590;28;20160;-69
2023/07/07 04:06:01;;;;;;;0.00;0.00;;;14.10;79.00;;;;;;5029846;28;20406;-68
2023/07/07 04:08:28;;;;;;;0.00;0.00;;;14.10;79.00;;;;;;5012775;28;20053;-68
2023/07/07 04:11:20;;;;;;;0.20;0.20;;;14.10;79.00;;;;;;5030741;28;20049;-68
2023/07/07 04:13:49;;;;;;;0.03;0.03;;;14.10;79.00;;;;;;5008989;28;20149;-69
2023/07/07 04:16:20;;;;;;;0.00;0.00;;;14.10;78.90;;;;;;5006133;28;20037;-69
2023/07/07 04:18:47;;;;;;;0.00;0.00;;;14.10;78.80;;;;;;5030482;28;20056;-68
2023/07/07 04:21:18;;;;;;;0.00;0.00;;;14.10;78.90;;;;;;5031004;28;20049;-69
2023/07/07 04:23:46;;;;;;;0.00;0.00;;;14.10;79.00;;;;;;5011786;28;20056;-68
2023/07/07 04:26:12;;;;;;;0.00;0.00;;;14.10;79.10;;;;;;5030155;28;20037;-68
2023/07/07 04:28:39;;;;;;;0.00;0.00;;;14.10;79.00;;;;;;5030365;28;20053;-68
2023/07/07 04:31:08;;;;;;;0.00;0.00;;;14.20;79.10;;;;;;5029912;28;20045;-68
2023/07/07 04:33:35;;;;;;;0.00;0.00;;;14.20;79.10;;;;;;5012781;28;20502;-68
2023/07/07 04:36:03;;;;;;;0.10;0.10;;;14.20;79.20;;;;;;5015631;28;20120;-69
2023/07/07 04:38:32;;;;;;;0.00;0.00;;;14.20;79.30;;;;;;5030206;28;20124;-69
2023/07/07 04:41:09;;;;;;;0.00;0.00;;;14.30;79.40;;;;;;5028937;28;20115;-69
2023/07/07 04:43:37;;;;;;;0.00;0.00;;;14.30;79.40;;;;;;5011007;28;20045;-69
2023/07/07 04:46:05;;;;;;;0.00;0.00;;;14.30;79.70;;;;;;5028856;28;20595;-69
2023/07/07 04:48:32;;;;;;;0.00;0.00;;;14.40;79.70;;;;;;5012575;28;20564;-69
2023/07/07 04:50:59;;;;;;;0.00;0.00;;;14.40;79.70;;;;;;5011404;28;20046;-69
2023/07/07 04:53:28;;;;;;;0.00;0.00;;;14.40;79.80;;;;;;5027556;28;20119;-69
2023/07/07 04:55:55;;;;;;;0.00;0.00;;;14.50;80.00;;;;;;5029759;28;20045;-69
2023/07/07 04:58:22;;;;;;;0.00;0.00;;;14.50;80.10;;;;;;5029701;28;20567;-69
2023/07/07 05:00:47;;;;;;;0.00;0.00;;;14.60;80.30;;;;;;5028463;28;20048;-69
2023/07/07 05:03:13;;;;;;;0.00;0.00;;;14.60;80.50;;;;;;5028469;28;20045;-69
2023/07/07 05:05:39;;;;;;;0.00;0.00;;;14.60;80.70;;;;;;5029148;28;20528;-69
2023/07/07 05:08:07;;;;;;;0.00;0.00;;;14.70;80.80;;;;;;5029996;28;20056;-69
2023/07/07 05:10:32;;;;;;;0.00;0.00;;;14.70;80.80;;;;;;5027405;28;20053;-69
2023/07/07 05:12:58;;;;;;;0.00;0.00;;;14.80;81.10;;;;;;5028439;28;20040;-69
2023/07/07 05:15:24;;;;;;;0.00;0.00;;;14.90;81.30;;;;;;5028197;28;20119;-69
2023/07/07 05:17:53;;;;;;;0.00;0.00;;;14.90;81.20;;;;;;5028186;28;20128;-69
2023/07/07 05:20:19;;;;;;;0.00;0.00;;;15.00;81.80;;;;;;5019448;28;20545;-68
2023/07/07 05:22:44;;;;;;;0.00;0.00;;;15.10;81.60;;;;;;5024543;28;20061;-69
2023/07/07 05:25:10;;;;;;;0.00;0.00;;;15.10;81.70;;;;;;5027925;28;20494;-69
2023/07/07 05:27:35;;;;;;;0.00;0.00;;;15.20;82.00;;;;;;5010355;28;20417;-68
2023/07/07 05:30:01;;;;;;;0.00;0.00;;;15.30;82.20;;;;;;5027055;28;20127;-69
2023/07/07 05:32:27;;;;;;;0.00;0.00;;;15.30;82.00;;;;;;5027273;28;20057;-68
2023/07/07 05:34:52;;;;;;;0.00;0.00;;;15.40;82.00;;;;;;5027584;28;20047;-68
2023/07/07 05:37:18;;;;;;;0.00;0.00;;;15.50;82.00;;;;;;5025936;28;20422;-68
2023/07/07 05:39:48;;;;;;;0.00;0.00;;;15.60;82.20;;;;;;5008784;28;20656;-70
2023/07/07 05:42:13;;;;;;;0.00;0.00;;;15.60;82.10;;;;;;5028354;28;20057;-68
2023/07/07 05:44:39;;;;;;;0.08;0.08;;;15.60;82.30;;;;;;5009180;28;20095;-69
2023/07/07 05:47:05;;;;;;;0.00;0.00;;;15.80;82.40;;;;;;5027071;28;20046;-69
2023/07/07 05:49:30;;;;;;;3.03;0.75;;;15.80;82.10;;;;;;5007569;28;20076;-69
2023/07/07 05:51:56;;;;;;;0.00;0.00;;;15.90;81.90;;;;;;5008692;28;20095;-69
2023/07/07 05:54:22;;;;;;;0.00;0.00;;;16.00;81.80;;;;;;5028135;28;20418;-68
2023/07/07 05:56:49;;;;;;;0.00;0.00;;;16.00;81.60;;;;;;5018301;28;20085;-68
2023/07/07 05:59:15;;;;;;;0.00;0.00;;;16.10;81.40;;;;;;5022997;28;20060;-69
2023/07/07 06:01:41;;;;;;;0.00;0.00;;;16.10;81.00;;;;;;5027735;28;20050;-68
2023/07/07 06:04:06;;;;;;;0.00;0.00;;;16.20;81.10;;;;;;5024912;28;20045;-69
2023/07/07 06:06:32;;;;;;;0.00;0.00;;;16.30;80.90;;;;;;5027526;28;20092;-69
2023/07/07 06:08:57;;;;;;;0.00;0.00;;;16.40;80.80;;;;;;5009723;28;20068;-69
2023/07/07 06:11:23;;;;;;;0.00;0.00;;;16.40;80.80;;;;;;5026616;28;20049;-69
2023/07/07 06:13:48;;;;;;;0.00;0.00;;;16.50;80.40;;;;;;5017763;28;20464;-69
2023/07/07 06:16:14;;;;;;;0.00;0.00;;;16.50;80.20;;;;;;5005605;28;20093;-68
2023/07/07 06:18:40;;;;;;;0.00;0.00;;;16.60;80.00;;;;;;5026458;28;20049;-70
2023/07/07 06:21:07;;;;;;;0.00;0.00;;;16.60;80.00;;;;;;5027565;28;20070;-72
2023/07/07 06:23:33;;;;;;;0.00;0.00;;;16.70;80.10;;;;;;5026453;28;20041;-69
2023/07/07 06:25:59;;;;;;;0.00;0.00;;;16.90;79.70;;;;;;5027554;28;20395;-70
2023/07/07 06:28:25;;;;;;;0.20;0.20;;;17.00;79.10;;;;;;5009872;28;20045;-69
2023/07/07 06:30:54;;;;;;;0.00;0.00;;;17.10;78.60;;;;;;5027675;28;20045;-69
2023/07/07 06:33:21;;;;;;;0.00;0.00;;;17.10;78.40;;;;;;5028265;28;20037;-71
2023/07/07 06:35:50;;;;;;;0.00;0.00;;;17.20;78.60;;;;;;5011099;28;20140;-68
2023/07/07 06:38:31;;;;;;;0.10;0.10;;;17.40;78.00;;;;;;5016908;28;20053;-69
2023/07/07 06:40:56;;;;;;;0.00;0.00;;;17.50;77.60;;;;;;5027396;28;20513;-74
2023/07/07 06:43:22;;;;;;;0.05;0.05;;;17.60;77.50;;;;;;5026876;28;20055;-74
2023/07/07 06:45:50;;;;;;;0.00;0.00;;;17.90;76.90;;;;;;5026737;28;20045;-73
2023/07/07 06:48:15;;;;;;;0.10;0.10;;;18.10;76.00;;;;;;5027986;28;20072;-73
2023/07/07 06:50:42;;;;;;;0.00;0.00;;;18.30;75.30;;;;;;5029378;28;20977;-69
2023/07/07 06:53:10;;;;;;;0.10;0.10;;;18.40;75.20;;;;;;5030981;28;20539;-69
2023/07/07 06:55:36;;;;;;;0.00;0.00;;;18.30;75.30;;;;;;5035213;28;20058;-68
2023/07/07 06:58:02;;;;;;;0.00;0.00;;;18.30;75.50;;;;;;5048287;28;20828;-68
2023/07/07 07:00:29;;;;;;;0.00;0.00;;;18.30;75.80;;;;;;5031706;28;20049;-68
2023/07/07 07:02:54;;;;;;;0.15;0.15;;;18.30;75.80;;;;;;5032236;28;20037;-68
2023/07/07 07:05:20;;;;;;;0.00;0.00;;;18.30;75.80;;;;;;5031456;28;20037;-68
2023/07/07 07:07:45;;;;;;;0.00;0.00;;;18.30;75.90;;;;;;5028466;28;20143;-67
2023/07/07 07:10:14;;;;;;;0.00;0.00;;;18.30;76.20;;;;;;5029343;28;20036;-68
2023/07/07 07:12:40;;;;;;;0.00;0.00;;;18.40;76.10;;;;;;5026278;28;20042;-68
2023/07/07 07:15:07;;;;;;;0.00;0.00;;;18.50;75.70;;;;;;5028893;28;20401;-68
2023/07/07 07:17:33;;;;;;;0.00;0.00;;;18.50;75.90;;;;;;5038135;28;20048;-68
2023/07/07 07:20:00;;;;;;;0.00;0.00;;;18.60;75.60;;;;;;5037736;28;20033;-68
2023/07/07 07:22:25;;;;;;;0.20;0.20;;;18.60;75.10;;;;;;5039039;28;20041;-68
2023/07/07 07:24:51;;;;;;;0.00;0.00;;;18.70;74.80;;;;;;5039192;28;20052;-68
2023/07/07 07:27:17;;;;;;;0.00;0.00;;;18.80;75.00;;;;;;5038526;28;20489;-69
2023/07/07 07:29:44;;;;;;;0.00;0.00;;;18.90;74.60;;;;;;5037254;28;20056;-68
2023/07/07 07:32:10;;;;;;;0.00;0.00;;;18.90;73.90;;;;;;5003746;28;20037;-68
2023/07/07 07:34:36;;;;;;;0.00;0.00;;;19.00;73.60;;;;;;5033425;28;20576;-68
2023/07/07 07:37:04;;;;;;;0.00;0.00;;;19.00;72.70;;;;;;5037347;28;20029;-68
2023/07/07 07:39:29;;;;;;;0.00;0.00;;;19.20;73.00;;;;;;5036625;28;20536;-68
2023/07/07 07:41:56;;;;;;;0.05;0.05;;;19.30;72.90;;;;;;5035221;28;20049;-68
2023/07/07 07:44:23;;;;;;;0.03;0.03;;;19.30;73.30;;;;;;5035347;28;20111;-69
2023/07/07 07:46:51;;;;;;;0.00;0.00;;;19.50;73.00;;;;;;5035131;28;20057;-68
2023/07/07 07:49:16;;;;;;;0.00;0.00;;;19.60;72.10;;;;;;5035356;28;20040;-69
2023/07/07 07:51:43;;;;;;;0.00;0.00;;;19.60;72.00;;;;;;5036132;28;20486;-68
2023/07/07 07:54:11;;;;;;;0.00;0.00;;;19.70;72.10;;;;;;5036344;28;20524;-68
2023/07/07 07:56:37;;;;;;;0.30;0.30;;;19.80;71.70;;;;;;5036506;28;20124;-69
2023/07/07 07:59:04;;;;;;;0.00;0.00;;;19.90;71.50;;;;;;5038870;28;21139;-68
2023/07/07 08:01:30;;;;;;;0.00;0.00;;;20.00;71.10;;;;;;5036042;28;20520;-69
2023/07/07 08:03:56;;;;;;;0.00;0.00;;;20.10;71.30;;;;;;5036004;28;20057;-68
2023/07/07 08:06:22;;;;;;;0.00;0.00;;;20.10;71.30;;;;;;5017640;28;20072;-68
2023/07/07 08:08:47;;;;;;;0.00;0.00;;;20.20;70.00;;;;;;5015662;28;20049;-69
2023/07/07 08:11:16;;;;;;;0.00;0.00;;;20.30;69.70;;;;;;5031592;28;20951;-69
2023/07/07 08:13:42;;;;;;;0.00;0.00;;;20.40;68.40;;;;;;5038837;28;20199;-69
2023/07/07 08:16:12;;;;;;;0.00;0.00;;;20.40;69.30;;;;;;5037414;28;20479;-69
2023/07/07 08:18:40;;;;;;;0.00;0.00;;;20.50;68.90;;;;;;5017285;28;20172;-69
2023/07/07 08:21:06;;;;;;;0.00;0.00;;;20.50;69.30;;;;;;5036391;28;20094;-69
2023/07/07 08:23:32;;;;;;;0.00;0.00;;;20.60;69.40;;;;;;5018148;28;20041;-69
2023/07/07 08:25:59;;;;;;;0.00;0.00;;;20.70;69.30;;;;;;5036956;28;20124;-68
2023/07/07 08:28:24;;;;;;;0.00;0.00;;;20.80;69.50;;;;;;5020848;28;20137;-68
2023/07/07 08:30:50;;;;;;;0.00;0.00;;;20.90;68.60;;;;;;5037008;28;20866;-68
2023/07/07 08:33:16;;;;;;;0.00;0.00;;;21.00;67.60;;;;;;5020842;28;20763;-69
2023/07/07 08:35:42;;;;;;;0.00;0.00;;;21.10;66.50;;;;;;5038464;28;20041;-70
2023/07/07 08:38:07;;;;;;;0.00;0.00;;;21.20;65.30;;;;;;5034184;28;20137;-68
2023/07/07 08:40:46;;;;;;;0.00;0.00;;;21.20;64.90;;;;;;4966739;22;20049;-68
2023/07/07 08:43:11;;;;;;;0.00;0.00;;;21.30;66.20;;;;;;4976189;28;20407;-68
2023/07/07 08:51:36;;;;;;;0.00;0.00;;;21.50;64.60;;;;;;5027048;28;20049;-67
2023/07/07 08:54:21;;;;;;;0.00;0.00;;;21.60;64.00;;;;;;5019071;28;20580;-67
2023/07/07 08:57:08;;;;;;;0.00;0.00;;;21.70;64.50;;;;;;5034967;28;20071;-67
2023/07/07 08:59:58;;;;;;;0.20;0.20;;;21.80;65.20;;;;;;5034735;28;20049;-66
2023/07/07 09:02:35;;;;;;;0.00;0.00;;;21.80;64.40;;;;;;5038178;28;20095;-64
2023/07/07 09:05:43;;;;;;;0.00;0.00;;;21.90;63.50;;;;;;5003592;28;20059;-68
2023/07/07 09:08:30;;;;;;;0.00;0.00;;;22.00;64.00;;;;;;5009211;28;20058;-66
2023/07/07 09:11:00;;;;;;;0.65;0.30;;;22.10;62.30;;;;;;5034654;28;20033;-69
2023/07/07 09:13:29;;;;;;;0.00;0.00;;;22.10;62.20;;;;;;5034888;28;20102;-67
2023/07/07 09:16:15;;;;;;;0.00;0.00;;;22.20;59.80;;;;;;5034626;28;20110;-67
2023/07/07 09:18:52;;;;;;;0.00;0.00;;;22.30;62.10;;;;;;5017665;28;20382;-68
2023/07/07 09:21:41;;;;;;;0.00;0.00;;;22.30;58.60;;;;;;5035080;28;20042;-67
2023/07/07 09:24:16;;;;;;;0.00;0.00;;;22.30;57.20;;;;;;5023605;28;20061;-67
2023/07/07 09:26:44;;;;;;;0.00;0.00;;;22.40;57.70;;;;;;5035935;28;20041;-67
2023/07/07 09:29:21;;;;;;;0.00;0.00;;;22.50;59.00;;;;;;5001079;28;20135;-67
2023/07/07 09:31:47;;;;;;;0.00;0.00;;;22.50;55.50;;;;;;5034886;28;20050;-67
2023/07/07 09:34:14;;;;;;;0.00;0.00;;;22.60;59.30;;;;;;5035813;28;20033;-67
2023/07/07 09:37:02;;;;;;;0.00;0.00;;;22.60;55.90;;;;;;5036744;28;20053;-67
2023/07/07 09:39:27;;;;;;;0.00;0.00;;;22.70;59.80;;;;;;5037401;28;20451;-67
2023/07/07 09:42:36;;;;;;;0.00;0.00;;;22.80;54.80;;;;;;5036417;28;20045;-67
2023/07/07 09:45:04;;;;;;;0.00;0.00;;;22.80;54.60;;;;;;5035603;28;20123;-68
2023/07/07 09:47:51;;;;;;;0.00;0.00;;;23.00;56.20;;;;;;5026899;28;20052;-67
2023/07/07 09:50:43;;;;;;;0.05;0.05;;;23.00;52.20;;;;;;5015891;28;20234;-67
2023/07/07 09:53:31;;;;;;;0.10;0.10;;;23.00;55.80;;;;;;5008489;28;20095;-70
2023/07/07 09:55:56;;;;;;;0.00;0.00;;;23.10;57.30;;;;;;5018847;28;20065;-71
2023/07/07 09:58:36;;;;;;;0.00;0.00;;;23.10;55.20;;;;;;5017247;28;20080;-70
2023/07/07 10:01:04;;;;;;;0.20;0.20;;;23.10;55.10;;;;;;5016058;28;20087;-70
2023/07/07 10:03:40;;;;;;;0.00;0.00;;;23.20;55.80;;;;;;5015577;28;20037;-70
2023/07/07 10:06:36;;;;;;;0.00;0.00;;;23.20;54.70;;;;;;5017628;28;20525;-70
2023/07/07 10:09:03;;;;;;;0.00;0.00;;;23.30;51.00;;;;;;5015753;28;20046;-72
2023/07/07 10:11:36;;;;;;;0.10;0.10;;;23.30;52.80;;;;;;5016971;28;20199;-70
2023/07/07 10:14:04;;;;;;;0.00;0.00;;;23.40;52.70;;;;;;5015972;28;20045;-72
2023/07/07 10:16:32;;;;;;;0.00;0.00;;;23.50;52.70;;;;;;4999802;28;20053;-72
2023/07/07 10:19:06;;;;;;;0.00;0.00;;;23.50;53.80;;;;;;5014788;28;20049;-72
2023/07/07 10:21:32;;;;;;;1.45;0.90;;;23.60;51.00;;;;;;5014506;28;20124;-69
2023/07/07 10:23:58;;;;;;;1.40;0.65;;;23.60;50.60;;;;;;4999594;28;20490;-71
2023/07/07 10:26:24;;;;;;;0.00;0.00;;;23.60;51.10;;;;;;5020186;28;20044;-71
2023/07/07 10:28:53;;;;;;;0.10;0.10;;;23.70;52.90;;;;;;5003286;28;20401;-71
2023/07/07 10:31:19;;;;;;;0.00;0.00;;;23.80;54.90;;;;;;5002684;28;20042;-71
2023/07/07 10:33:49;;;;;;;0.00;0.00;;;23.80;50.90;;;;;;5020449;28;20508;-70
2023/07/07 10:36:23;;;;;;;0.00;0.00;;;23.80;49.70;;;;;;5018111;28;20509;-67
2023/07/07 10:38:49;;;;;;;0.00;0.00;;;23.90;52.00;;;;;;5020443;28;20057;-67
2023/07/07 10:41:15;;;;;;;0.00;0.00;;;24.00;47.80;;;;;;5020105;28;20042;-68
2023/07/07 10:43:40;;;;;;;0.00;0.00;;;24.00;53.70;;;;;;5003646;28;20603;-67
2023/07/07 10:46:11;;;;;;;0.00;0.00;;;24.10;52.20;;;;;;5019610;28;20176;-67
2023/07/07 10:48:39;;;;;;;0.00;0.00;;;24.10;49.50;;;;;;5021199;28;20693;-67
2023/07/07 10:51:21;;;;;;;0.00;0.00;;;24.20;53.00;;;;;;5019335;28;20133;-67
2023/07/07 10:54:00;;;;;;;0.00;0.00;;;24.30;54.20;;;;;;5019801;28;20103;-67
2023/07/07 10:56:43;;;;;;;0.00;0.00;;;24.40;51.30;;;;;;4983211;28;20042;-67
2023/07/07 10:59:14;;;;;;;0.00;0.00;;;24.50;52.80;;;;;;5018177;28;20056;-67
2023/07/07 11:01:39;;;;;;;;;;;24.60;52.60;;;;;;5019902;28;20050;-67
2023/07/07 11:04:42;;;;;;;0.00;0.00;;;24.70;52.70;;;;;;5010042;28;20343;-67
2023/07/07 11:07:27;;;;;;;0.00;0.00;;;24.80;52.80;;;;;;5012677;28;20038;-67
2023/07/07 11:09:56;;;;;;;0.35;0.20;;;24.90;53.10;;;;;;5012227;28;20076;-67
2023/07/07 11:12:30;;;;;;;0.00;0.00;;;25.00;49.30;;;;;;5012210;28;20096;-67
2023/07/07 11:15:14;;;;;;;0.22;0.22;;;25.10;51.10;;;;;;5010963;28;20041;-67
2023/07/07 11:18:05;;;;;;;0.00;0.00;;;25.20;52.10;;;;;;5012141;28;20048;-67
2023/07/07 11:20:52;;;;;;;0.00;0.00;;;25.30;48.50;;;;;;5012029;28;20456;-68
2023/07/07 11:23:31;;;;;;;0.00;0.00;;;25.30;48.10;;;;;;5011693;28;20700;-68
2023/07/07 11:26:11;;;;;;;0.00;0.00;;;25.30;48.20;;;;;;5011921;28;20519;-67
2023/07/07 11:28:51;;;;;;;0.00;0.00;;;25.40;50.10;;;;;;5011843;28;20077;-68
2023/07/07 11:31:32;;;;;;;0.00;0.00;;;25.50;49.80;;;;;;4992570;28;20042;-67
2023/07/07 11:34:48;;;;;;;0.00;0.00;;;25.50;51.50;;;;;;4992097;28;20054;-67
2023/07/07 11:37:31;;;;;;;0.00;0.00;;;25.70;51.60;;;;;;4970074;28;20092;-67
2023/07/07 11:40:11;;;;;;;0.00;0.00;;;25.80;50.80;;;;;;5011923;28;20560;-67
2023/07/07 11:43:03;;;;;;;0.00;0.00;;;25.80;48.30;;;;;;5011727;28;20108;-67
2023/07/07 11:46:01;;;;;;;0.00;0.00;;;25.90;51.20;;;;;;5011058;28;20041;-67
2023/07/07 11:48:54;;;;;;;0.00;0.00;;;26.00;48.40;;;;;;5006750;28;20788;-67
2023/07/07 11:51:38;;;;;;;0.00;0.00;;;26.00;48.70;;;;;;5011903;28;20054;-67
2023/07/07 11:54:23;;;;;;;0.00;0.00;;;26.00;49.60;;;;;;5011792;28;20057;-68
2023/07/07 11:56:48;;;;;;;0.10;0.10;;;26.20;49.60;;;;;;5011100;28;20379;-68
2023/07/07 11:59:20;;;;;;;0.00;0.00;;;26.30;49.20;;;;;;5011536;28;20133;-68
2023/07/07 12:01:49;;;;;;;0.00;0.00;;;26.40;47.60;;;;;;5011990;28;20433;-68
2023/07/07 12:04:25;;;;;;;0.00;0.00;;;26.40;50.30;;;;;;5011423;28;20068;-68
2023/07/07 12:07:01;;;;;;;0.10;0.10;;;26.40;46.40;;;;;;5011310;28;20589;-68
2023/07/07 12:09:47;;;;;;;0.30;0.30;;;26.50;45.60;;;;;;5011029;28;20060;-68
2023/07/07 12:12:25;;;;;;;0.00;0.00;;;26.50;44.80;;;;;;4974414;28;20082;-69
2023/07/07 12:15:02;;;;;;;1.88;0.30;;;26.50;47.70;;;;;;4999730;28;20041;-68
2023/07/07 12:17:33;;;;;;;0.00;0.00;;;26.60;47.60;;;;;;4993290;28;20050;-68
2023/07/07 12:20:27;;;;;;;0.00;0.00;;;26.80;49.20;;;;;;5008579;28;20054;-68
2023/07/07 12:22:54;;;;;;;0.00;0.00;;;26.90;47.60;;;;;;4989642;28;20062;-68
2023/07/07 12:25:24;;;;;;;0.00;0.00;;;26.90;46.70;;;;;;5007848;28;20127;-68
2023/07/07 12:27:54;;;;;;;0.00;0.00;;;27.00;49.40;;;;;;5008946;28;20045;-68
2023/07/07 12:30:24;;;;;;;0.08;0.08;;;27.10;49.30;;;;;;5010082;28;20412;-68
2023/07/07 12:32:51;;;;;;;0.00;0.00;;;27.30;46.90;;;;;;5010537;28;20095;-68
2023/07/07 12:35:48;;;;;;;0.22;0.13;;;27.20;47.10;;;;;;5010406;28;20069;-68
2023/07/07 12:38:31;;;;;;;0.00;0.00;;;27.30;46.60;;;;;;4974982;28;20054;-68
2023/07/07 12:41:18;;;;;;;0.00;0.00;;;27.40;46.40;;;;;;5001723;28;20068;-67
2023/07/07 12:43:57;;;;;;;0.00;0.00;;;27.40;45.00;;;;;;5009809;28;20052;-67
2023/07/07 12:46:28;;;;;;;0.10;0.10;;;27.50;44.80;;;;;;5009877;28;20046;-68
2023/07/07 12:49:00;;;;;;;0.00;0.00;;;27.50;46.50;;;;;;5010246;28;20042;-68
2023/07/07 12:51:31;;;;;;;0.00;0.00;;;27.70;44.50;;;;;;5010032;28;20065;-68
2023/07/07 12:53:57;;;;;;;;;;;27.70;45.80;;;;;;5009298;28;20502;-68
2023/07/07 12:56:26;;;;;;;0.00;0.00;;;27.80;47.70;;;;;;5009883;28;19928;-68
2023/07/07 12:58:53;;;;;;;0.00;0.00;;;27.90;47.20;;;;;;5009261;28;20450;-68
2023/07/07 13:01:19;;;;;;;0.00;0.00;;;28.00;45.60;;;;;;5009665;28;20099;-68
2023/07/07 13:03:54;;;;;;;0.10;0.10;;;28.10;45.20;;;;;;5009079;28;20054;-67
2023/07/07 13:06:25;;;;;;;0.00;0.00;;;28.20;43.60;;;;;;5009574;28;20037;-68
2023/07/07 13:09:10;;;;;;;0.00;0.00;;;28.30;46.00;;;;;;5005955;28;20073;-68
2023/07/07 13:11:36;;;;;;;0.00;0.00;;;28.30;43.20;;;;;;5007875;28;20057;-68
2023/07/07 13:14:02;;;;;;;0.00;0.00;;;28.30;44.70;;;;;;5009349;28;20046;-67